createdAt,value
2023-04-21T00:01:08.597Z,34.11
2023-04-21T00:03:38.621Z,33.98
2023-04-21T00:06:12.468Z,34.06
2023-04-21T00:08:40.724Z,33.95
2023-04-21T00:11:08.554Z,34.12
2023-04-21T00:13:36.720Z,34.04
2023-04-21T00:16:04.157Z,34.15
2023-04-21T00:18:31.788Z,34.52
2023-04-21T00:20:58.863Z,34.22
2023-04-21T00:23:25.933Z,34.63
2023-04-21T00:25:53.669Z,35.05
2023-04-21T00:28:20.758Z,34.93
2023-04-21T00:30:47.863Z,34.97
2023-04-21T00:33:15.084Z,35.12
2023-04-21T00:35:42.149Z,35.34
2023-04-21T00:38:09.204Z,35.10
2023-04-21T00:40:36.668Z,34.84
2023-04-21T00:43:08.218Z,35.09
2023-04-21T00:45:36.202Z,34.77
2023-04-21T00:48:03.418Z,34.92
2023-04-21T00:50:30.591Z,34.63
2023-04-21T00:52:59.572Z,34.92
2023-04-21T00:55:26.961Z,34.90
2023-04-21T00:57:56.477Z,34.89
2023-04-21T01:00:28.127Z,35.37
2023-04-21T01:02:56.998Z,35.50
2023-04-21T01:05:24.111Z,35.52
2023-04-21T01:07:51.254Z,35.51
2023-04-21T01:10:18.356Z,35.24
2023-04-21T01:12:47.832Z,35.40
2023-04-21T01:15:17.501Z,35.55
2023-04-21T01:17:45.419Z,35.47
2023-04-21T01:20:15.410Z,35.79
2023-04-21T01:22:44.755Z,35.72
2023-04-21T01:25:12.057Z,35.67
2023-04-21T01:27:39.124Z,35.61
2023-04-21T01:30:09.045Z,35.65
2023-04-21T01:32:36.408Z,35.22
2023-04-21T01:35:03.849Z,36.13
2023-04-21T01:37:34.053Z,36.50
2023-04-21T01:40:05.469Z,36.19
2023-04-21T01:42:35.784Z,36.16
2023-04-21T01:45:03.516Z,36.22
2023-04-21T01:47:33.131Z,36.42
2023-04-21T01:50:00.359Z,36.31
2023-04-21T01:52:27.387Z,36.70
2023-04-21T01:54:55.294Z,36.71
2023-04-21T01:57:22.321Z,36.72
2023-04-21T01:59:51.082Z,37.09
2023-04-21T02:02:18.274Z,37.11
2023-04-21T02:04:45.364Z,37.08
2023-04-21T02:07:12.385Z,36.87
2023-04-21T02:09:41.078Z,36.88
2023-04-21T02:12:08.259Z,37.27
2023-04-21T02:14:37.616Z,37.00
2023-04-21T02:17:07.992Z,37.23
2023-04-21T02:19:35.127Z,37.22
2023-04-21T02:22:02.195Z,37.69
2023-04-21T02:24:29.211Z,37.75
2023-04-21T02:26:58.678Z,38.04
2023-04-21T02:29:28.858Z,37.96
2023-04-21T02:32:03.119Z,37.73
2023-04-21T02:34:38.583Z,38.06
2023-04-21T02:37:06.497Z,37.72
2023-04-21T02:39:33.646Z,37.70
2023-04-21T02:42:01.874Z,37.76
2023-04-21T02:44:28.959Z,38.37
2023-04-21T02:46:56.052Z,38.60
2023-04-21T02:49:23.276Z,38.06
2023-04-21T02:51:50.598Z,38.70
2023-04-21T02:54:17.664Z,37.95
2023-04-21T02:56:44.846Z,38.54
2023-04-21T02:59:16.711Z,38.54
2023-04-21T03:01:44.053Z,38.26
2023-04-21T03:04:11.170Z,37.98
2023-04-21T03:06:38.810Z,38.13
2023-04-21T03:09:06.201Z,38.05
2023-04-21T03:11:33.338Z,38.16
2023-04-21T03:14:00.440Z,37.91
2023-04-21T03:16:28.144Z,37.81
2023-04-21T03:18:55.563Z,37.76
2023-04-21T03:21:22.647Z,37.63
2023-04-21T03:23:49.685Z,37.85
2023-04-21T03:26:16.937Z,37.56
2023-04-21T03:28:43.930Z,37.76
2023-04-21T03:31:11.038Z,37.75
2023-04-21T03:33:38.121Z,37.51
2023-04-21T03:36:05.453Z,37.23
2023-04-21T03:38:32.463Z,37.29
2023-04-21T03:40:59.472Z,37.36
2023-04-21T03:43:26.909Z,36.94
2023-04-21T03:45:53.991Z,36.43
2023-04-21T03:48:21.262Z,35.38
2023-04-21T03:50:48.356Z,35.25
2023-04-21T03:53:15.375Z,35.19
2023-04-21T03:55:42.329Z,34.32
2023-04-21T03:58:09.333Z,33.99
2023-04-21T04:00:36.428Z,33.93
2023-04-21T04:03:03.639Z,33.50
2023-04-21T04:05:31.161Z,33.55
2023-04-21T04:07:58.331Z,33.01
2023-04-21T04:10:25.383Z,32.71
2023-04-21T04:12:52.518Z,32.70
2023-04-21T04:15:20.224Z,32.54
2023-04-21T04:17:47.667Z,32.77
2023-04-21T04:20:15.326Z,32.72
2023-04-21T04:22:42.543Z,32.78
2023-04-21T04:25:09.827Z,31.58
2023-04-21T04:27:37.072Z,30.90
2023-04-21T04:30:06.021Z,30.67
2023-04-21T04:32:34.225Z,29.96
2023-04-21T04:35:01.401Z,29.13
2023-04-21T04:37:29.348Z,29.59
2023-04-21T04:39:59.781Z,29.04
2023-04-21T04:42:27.028Z,29.10
2023-04-21T04:44:54.550Z,29.40
2023-04-21T04:47:21.924Z,28.77
2023-04-21T04:49:49.290Z,28.02
2023-04-21T04:52:16.361Z,27.55
2023-04-21T04:54:43.370Z,27.15
2023-04-21T04:57:10.553Z,26.48
2023-04-21T04:59:37.861Z,26.23
2023-04-21T05:02:05.014Z,26.63
2023-04-21T05:04:32.518Z,26.84
2023-04-21T05:06:59.639Z,26.38
2023-04-21T05:09:26.895Z,26.27
2023-04-21T05:11:54.418Z,26.18
2023-04-21T05:14:21.667Z,26.18
2023-04-21T05:16:48.886Z,25.52
2023-04-21T05:19:18.087Z,25.35
2023-04-21T05:21:46.012Z,25.05
2023-04-21T05:24:13.144Z,24.90
2023-04-21T05:26:40.190Z,24.45
2023-04-21T05:29:07.238Z,24.47
2023-04-21T05:31:35.005Z,23.92
2023-04-21T05:34:02.295Z,23.66
2023-04-21T05:36:30.610Z,23.46
2023-04-21T05:38:57.780Z,23.35
2023-04-21T05:41:24.888Z,23.64
2023-04-21T05:43:51.954Z,23.37
2023-04-21T05:46:21.613Z,23.11
2023-04-21T05:48:48.978Z,22.28
2023-04-21T05:51:16.222Z,21.86
2023-04-21T05:53:44.759Z,21.74
2023-04-21T05:56:13.030Z,21.08
2023-04-21T05:58:40.278Z,20.94
2023-04-21T06:01:07.954Z,21.16
2023-04-21T06:03:35.160Z,21.24
2023-04-21T06:06:04.918Z,21.06
2023-04-21T06:08:32.711Z,20.90
2023-04-21T06:10:59.828Z,20.21
2023-04-21T06:13:28.062Z,19.16
2023-04-21T06:15:55.612Z,17.89
2023-04-21T06:18:24.239Z,17.78
2023-04-21T06:20:55.478Z,15.92
2023-04-21T06:23:22.735Z,15.99
2023-04-21T06:26:05.161Z,13.68
2023-04-21T06:28:33.224Z,15.05
2023-04-21T06:31:01.723Z,14.56
2023-04-21T06:33:29.990Z,13.89
2023-04-21T06:35:57.077Z,13.51
2023-04-21T06:38:24.086Z,14.16
2023-04-21T06:40:51.339Z,14.32
2023-04-21T06:43:18.322Z,14.74
2023-04-21T06:45:45.393Z,14.62
2023-04-21T06:48:12.600Z,14.38
2023-04-21T06:50:39.966Z,14.40
2023-04-21T06:53:07.075Z,14.72
2023-04-21T06:55:34.199Z,14.67
2023-04-21T06:58:01.364Z,15.20
2023-04-21T07:00:28.722Z,14.88
2023-04-21T07:02:55.855Z,14.52
2023-04-21T07:05:23.051Z,14.30
2023-04-21T07:07:50.157Z,14.43
2023-04-21T07:10:20.036Z,14.21
2023-04-21T07:12:47.521Z,13.96
2023-04-21T07:15:14.527Z,13.71
2023-04-21T07:17:41.584Z,13.60
2023-04-21T07:20:09.248Z,13.67
2023-04-21T07:22:36.803Z,13.33
2023-04-21T07:25:06.558Z,13.62
2023-04-21T07:27:34.845Z,13.78
2023-04-21T07:30:01.947Z,13.53
2023-04-21T07:32:31.618Z,13.06
2023-04-21T07:34:58.876Z,12.99
2023-04-21T07:37:27.241Z,13.07
2023-04-21T07:39:54.264Z,13.16
2023-04-21T07:42:21.403Z,13.42
2023-04-21T07:44:49.113Z,13.14
2023-04-21T07:47:16.706Z,12.96
2023-04-21T07:49:43.835Z,13.46
2023-04-21T07:52:10.886Z,13.29
2023-04-21T07:54:37.870Z,13.40
2023-04-21T07:57:04.932Z,13.02
2023-04-21T07:59:32.005Z,12.90
2023-04-21T08:01:59.117Z,12.80
2023-04-21T08:04:26.794Z,13.12
2023-04-21T08:06:54.510Z,13.12
2023-04-21T08:09:21.830Z,13.29
2023-04-21T08:11:49.067Z,13.90
2023-04-21T08:14:16.409Z,14.06
2023-04-21T08:16:43.666Z,13.93
2023-04-21T08:19:10.959Z,13.74
2023-04-21T08:21:37.975Z,13.92
2023-04-21T08:24:05.399Z,13.85
2023-04-21T08:26:34.006Z,14.16
2023-04-21T08:29:04.035Z,14.06
2023-04-21T08:31:31.785Z,14.24
2023-04-21T08:34:02.739Z,13.98
2023-04-21T08:36:31.991Z,13.46
2023-04-21T08:38:59.340Z,14.18
2023-04-21T08:41:26.842Z,14.38
2023-04-21T08:43:53.935Z,14.32
2023-04-21T08:46:21.944Z,13.79
2023-04-21T08:48:49.361Z,13.08
2023-04-21T08:51:22.744Z,13.27
2023-04-21T08:53:50.450Z,13.07
2023-04-21T08:56:17.645Z,13.89
2023-04-21T08:58:44.757Z,13.41
2023-04-21T09:01:12.335Z,13.74
2023-04-21T09:03:39.618Z,12.94
2023-04-21T09:06:09.414Z,12.90
2023-04-21T09:08:43.818Z,13.54
2023-04-21T09:11:14.586Z,13.19
2023-04-21T09:13:43.978Z,13.03
2023-04-21T09:16:22.587Z,12.29
2023-04-21T09:18:50.402Z,12.85
2023-04-21T09:21:19.809Z,12.61
2023-04-21T09:23:51.962Z,12.20
2023-04-21T09:26:24.132Z,11.56
2023-04-21T09:28:52.401Z,10.98
2023-04-21T09:31:22.064Z,10.38
2023-04-21T09:33:58.345Z,11.13
2023-04-21T09:36:29.487Z,10.90
2023-04-21T09:39:20.697Z,10.80
2023-04-21T09:41:45.758Z,10.58
2023-04-21T09:44:12.859Z,10.38
2023-04-21T09:46:44.721Z,9.75
2023-04-21T09:49:16.950Z,10.07
2023-04-21T09:52:10.357Z,10.51
2023-04-21T09:54:33.662Z,10.66
2023-04-21T09:57:03.825Z,11.13
2023-04-21T09:59:40.976Z,11.12
2023-04-21T10:02:09.898Z,11.56
2023-04-21T10:04:39.014Z,12.03
2023-04-21T10:07:07.191Z,12.37
2023-04-21T10:09:41.812Z,13.17
2023-04-21T10:12:10.469Z,13.14
2023-04-21T10:14:37.614Z,13.14
2023-04-21T10:17:06.630Z,14.05
2023-04-21T10:19:39.675Z,14.48
2023-04-21T10:22:09.099Z,14.50
2023-04-21T10:24:40.536Z,15.77
2023-04-21T10:27:12.793Z,15.20
2023-04-21T10:29:52.787Z,15.53
2023-04-21T10:32:55.215Z,15.42
2023-04-21T10:35:23.464Z,15.57
2023-04-21T10:37:54.370Z,16.19
2023-04-21T10:40:43.178Z,16.81
2023-04-21T10:43:51.109Z,16.87
2023-04-21T10:46:38.093Z,17.31
2023-04-21T10:49:31.587Z,16.80
2023-04-21T10:51:59.357Z,16.55
2023-04-21T10:54:28.419Z,16.67
2023-04-21T10:56:59.448Z,16.89
2023-04-21T10:59:29.319Z,17.12
2023-04-21T11:01:57.266Z,17.23
2023-04-21T11:04:24.877Z,17.63
2023-04-21T11:07:13.034Z,18.71
2023-04-21T11:09:41.861Z,18.09
2023-04-21T11:12:11.620Z,18.00
2023-04-21T11:14:41.138Z,18.12
2023-04-21T11:17:12.976Z,18.73
2023-04-21T11:19:40.609Z,18.84
2023-04-21T11:22:07.986Z,18.45
2023-04-21T11:24:35.095Z,18.71
2023-04-21T11:27:02.412Z,18.52
2023-04-21T11:29:29.923Z,18.82
2023-04-21T11:31:59.091Z,19.12
2023-04-21T11:34:26.663Z,18.94
2023-04-21T11:36:54.164Z,18.50
2023-04-21T11:39:22.352Z,18.51
2023-04-21T11:41:52.713Z,18.43
2023-04-21T11:44:34.052Z,18.40
2023-04-21T11:47:12.151Z,18.74
2023-04-21T11:49:46.506Z,18.56
2023-04-21T11:52:27.943Z,18.58
2023-04-21T11:55:06.628Z,17.91
2023-04-21T11:57:34.390Z,18.34
2023-04-21T12:00:03.720Z,18.26
2023-04-21T12:02:35.529Z,18.10
2023-04-21T12:05:11.243Z,17.80
2023-04-21T12:07:42.713Z,17.67
2023-04-21T12:10:29.961Z,18.64
2023-04-21T12:12:57.482Z,18.08
2023-04-21T12:15:24.531Z,17.96
2023-04-21T12:17:54.045Z,17.71
2023-04-21T12:20:23.490Z,17.88
2023-04-21T12:22:51.033Z,17.99
2023-04-21T12:25:18.508Z,18.02
2023-04-21T12:27:50.227Z,18.26
2023-04-21T12:30:17.392Z,18.27
2023-04-21T12:32:44.771Z,18.39
2023-04-21T12:35:11.945Z,18.66
2023-04-21T12:37:39.061Z,18.60
2023-04-21T12:40:08.063Z,18.06
2023-04-21T12:42:37.504Z,18.37
2023-04-21T12:45:06.597Z,18.53
2023-04-21T12:47:34.742Z,18.34
2023-04-21T12:50:01.907Z,18.36
2023-04-21T12:52:32.530Z,18.46
2023-04-21T12:54:59.697Z,18.37
2023-04-21T12:57:27.001Z,18.43
2023-04-21T12:59:54.127Z,18.57
2023-04-21T13:02:21.276Z,18.89
2023-04-21T13:04:48.471Z,18.91
2023-04-21T13:07:16.399Z,18.91
2023-04-21T13:09:43.754Z,19.05
2023-04-21T13:12:10.715Z,19.28
2023-04-21T13:14:37.713Z,19.47
2023-04-21T13:17:05.416Z,19.41
2023-04-21T13:19:32.698Z,19.62
2023-04-21T13:22:00.064Z,19.62
2023-04-21T13:24:27.313Z,19.80
2023-04-21T13:26:54.777Z,19.73
2023-04-21T13:29:21.844Z,19.62
2023-04-21T13:31:48.853Z,19.58
2023-04-21T13:34:15.954Z,19.57
2023-04-21T13:36:43.056Z,19.67
2023-04-21T13:39:11.846Z,19.59
2023-04-21T13:41:39.032Z,19.73
2023-04-21T13:44:06.373Z,19.52
2023-04-21T13:46:33.694Z,19.55
2023-04-21T13:49:01.009Z,19.56
2023-04-21T13:51:30.170Z,19.64
2023-04-21T13:53:57.258Z,19.78
2023-04-21T13:56:24.756Z,19.78
2023-04-21T13:58:51.945Z,19.84
2023-04-21T14:01:21.373Z,19.89
2023-04-21T14:03:49.345Z,19.61
2023-04-21T14:06:17.410Z,19.75
2023-04-21T14:08:44.550Z,19.47
2023-04-21T14:11:11.572Z,19.70
2023-04-21T14:13:47.762Z,19.83
2023-04-21T14:16:25.785Z,19.75
2023-04-21T14:18:52.860Z,19.87
2023-04-21T14:21:19.920Z,19.99
2023-04-21T14:23:47.065Z,20.32
2023-04-21T14:26:14.210Z,20.15
2023-04-21T14:28:41.801Z,20.21
2023-04-21T14:31:09.018Z,20.39
2023-04-21T14:33:36.177Z,20.29
2023-04-21T14:36:03.631Z,20.38
2023-04-21T14:38:30.941Z,20.68
2023-04-21T14:40:58.035Z,20.49
2023-04-21T14:43:25.140Z,20.62
2023-04-21T14:45:52.909Z,20.50
2023-04-21T14:48:21.301Z,20.50
2023-04-21T14:50:48.593Z,20.36
2023-04-21T14:53:15.776Z,20.44
2023-04-21T14:55:42.921Z,20.69
2023-04-21T14:58:10.038Z,20.67
2023-04-21T15:00:38.829Z,20.76
2023-04-21T15:03:05.952Z,20.88
2023-04-21T15:05:34.840Z,21.06
2023-04-21T15:08:02.449Z,21.11
2023-04-21T15:10:31.082Z,21.31
2023-04-21T15:12:58.620Z,21.20
2023-04-21T15:15:25.745Z,21.60
2023-04-21T15:17:52.763Z,21.80
2023-04-21T15:20:26.622Z,22.01
2023-04-21T15:22:59.922Z,22.03
2023-04-21T15:25:27.141Z,22.01
2023-04-21T15:27:54.113Z,22.16
2023-04-21T15:30:21.213Z,22.44
2023-04-21T15:32:48.308Z,22.27
2023-04-21T15:35:15.464Z,22.63
2023-04-21T15:37:42.661Z,22.72
2023-04-21T15:40:10.308Z,22.94
2023-04-21T15:42:37.360Z,22.90
2023-04-21T15:45:04.721Z,23.33
2023-04-21T15:47:33.729Z,23.27
2023-04-21T15:50:00.849Z,23.16
2023-04-21T15:52:28.617Z,23.40
2023-04-21T15:54:55.765Z,23.34
2023-04-21T15:57:24.322Z,23.32
2023-04-21T15:59:51.445Z,23.56
2023-04-21T16:02:18.653Z,23.42
2023-04-21T16:04:46.214Z,23.60
2023-04-21T16:07:13.672Z,23.68
2023-04-21T16:09:41.367Z,23.57
2023-04-21T16:12:10.462Z,23.71
2023-04-21T16:14:53.423Z,23.80
2023-04-21T16:17:25.630Z,24.09
2023-04-21T16:19:53.880Z,24.11
2023-04-21T16:22:21.056Z,24.29
2023-04-21T16:24:48.680Z,24.38
2023-04-21T16:27:15.983Z,24.37
2023-04-21T16:29:43.303Z,24.24
2023-04-21T16:32:10.590Z,24.27
2023-04-21T16:34:37.977Z,24.19
2023-04-21T16:37:05.484Z,24.45
2023-04-21T16:39:32.593Z,24.41
2023-04-21T16:41:59.878Z,24.74
2023-04-21T16:44:26.911Z,24.72
2023-04-21T16:46:54.192Z,24.61
2023-04-21T16:49:21.351Z,24.78
2023-04-21T16:51:48.522Z,25.07
2023-04-21T16:54:15.600Z,25.16
2023-04-21T16:56:42.613Z,25.09
2023-04-21T16:59:09.618Z,25.27
2023-04-21T17:01:36.833Z,25.05
2023-04-21T17:04:04.104Z,25.39
2023-04-21T17:06:32.041Z,25.38
2023-04-21T17:09:01.931Z,25.59
2023-04-21T17:11:30.102Z,25.88
2023-04-21T17:13:57.163Z,25.65
2023-04-21T17:16:24.418Z,25.53
2023-04-21T17:18:51.457Z,25.63
2023-04-21T17:21:18.458Z,25.70
2023-04-21T17:23:45.484Z,25.95
2023-04-21T17:26:13.261Z,26.02
2023-04-21T17:28:40.546Z,26.41
2023-04-21T17:31:14.526Z,26.17
2023-04-21T17:33:44.353Z,26.39
2023-04-21T17:36:12.444Z,26.41
2023-04-21T17:38:39.984Z,26.36
2023-04-21T17:41:07.833Z,26.50
2023-04-21T17:43:34.880Z,26.73
2023-04-21T17:46:02.027Z,26.83
2023-04-21T17:48:29.117Z,26.86
2023-04-21T17:50:56.179Z,26.94
2023-04-21T17:53:23.264Z,26.96
2023-04-21T17:55:51.106Z,27.09
2023-04-21T17:58:18.655Z,27.16
2023-04-21T18:00:45.638Z,27.48
2023-04-21T18:03:12.863Z,27.61
2023-04-21T18:05:40.312Z,27.66
2023-04-21T18:08:07.685Z,27.81
2023-04-21T18:10:35.982Z,27.85
2023-04-21T18:13:03.217Z,27.94
2023-04-21T18:15:30.569Z,27.93
2023-04-21T18:17:57.702Z,28.13
2023-04-21T18:20:25.064Z,28.23
2023-04-21T18:22:54.184Z,28.30
2023-04-21T18:25:38.334Z,28.31
2023-04-21T18:28:08.308Z,28.53
2023-04-21T18:30:35.383Z,28.77
2023-04-21T18:33:02.557Z,28.76
2023-04-21T18:35:29.717Z,29.00
2023-04-21T18:37:56.813Z,29.34
2023-04-21T18:40:24.095Z,29.28
2023-04-21T18:42:51.111Z,29.54
2023-04-21T18:45:18.674Z,29.80
2023-04-21T18:47:48.672Z,30.09
2023-04-21T18:50:15.809Z,30.06
2023-04-21T18:52:42.849Z,30.24
2023-04-21T18:55:10.328Z,30.26
2023-04-21T18:57:37.419Z,30.61
2023-04-21T19:00:05.101Z,30.63
2023-04-21T19:02:33.787Z,30.46
2023-04-21T19:05:01.324Z,30.39
2023-04-21T19:07:31.813Z,30.38
2023-04-21T19:09:58.789Z,30.75
2023-04-21T19:12:27.074Z,30.65
2023-04-21T19:14:54.375Z,30.67
2023-04-21T19:17:22.051Z,30.89
2023-04-21T19:19:49.663Z,30.95
2023-04-21T19:22:16.964Z,31.09
2023-04-21T19:24:43.993Z,31.36
2023-04-21T19:27:11.204Z,31.28
2023-04-21T19:29:38.392Z,31.34
2023-04-21T19:32:05.667Z,31.68
2023-04-21T19:34:32.766Z,31.72
2023-04-21T19:37:00.010Z,31.85
2023-04-21T19:39:27.930Z,32.05
2023-04-21T19:41:56.096Z,32.04
2023-04-21T19:44:23.153Z,32.17
2023-04-21T19:46:51.275Z,32.59
2023-04-21T19:49:18.376Z,32.30
2023-04-21T19:51:45.446Z,32.29
2023-04-21T19:54:12.657Z,32.46
2023-04-21T19:56:40.802Z,32.53
2023-04-21T19:59:08.080Z,32.71
2023-04-21T20:01:35.287Z,32.95
2023-04-21T20:04:03.755Z,32.51
2023-04-21T20:06:32.119Z,32.79
2023-04-21T20:08:59.526Z,33.03
2023-04-21T20:11:28.956Z,33.17
2023-04-21T20:13:56.523Z,33.17
2023-04-21T20:16:26.312Z,33.23
2023-04-21T20:18:58.413Z,33.55
2023-04-21T20:21:25.708Z,33.84
2023-04-21T20:23:52.779Z,33.47
2023-04-21T20:26:19.850Z,33.63
2023-04-21T20:28:47.489Z,33.62
2023-04-21T20:31:14.802Z,33.54
2023-04-21T20:33:41.896Z,33.77
2023-04-21T20:36:08.878Z,33.67
2023-04-21T20:38:35.996Z,33.50
2023-04-21T20:41:03.453Z,33.40
2023-04-21T20:43:34.267Z,33.57
2023-04-21T20:46:01.900Z,33.78
2023-04-21T20:48:29.219Z,33.68
2023-04-21T20:50:56.542Z,33.69
2023-04-21T20:53:24.059Z,34.04
2023-04-21T20:55:51.546Z,34.07
2023-04-21T20:58:18.816Z,34.22
2023-04-21T21:00:45.914Z,34.17
2023-04-21T21:03:13.931Z,34.53
2023-04-21T21:05:41.553Z,34.51
2023-04-21T21:08:09.201Z,34.44
2023-04-21T21:10:36.421Z,34.73
2023-04-21T21:13:03.979Z,34.37
2023-04-21T21:15:31.265Z,34.41
2023-04-21T21:17:58.837Z,34.87
2023-04-21T21:20:26.182Z,34.67
2023-04-21T21:22:53.388Z,34.80
2023-04-21T21:25:20.494Z,35.06
2023-04-21T21:27:48.379Z,34.99
2023-04-21T21:30:15.574Z,34.97
2023-04-21T21:32:42.911Z,35.09
2023-04-21T21:35:10.529Z,35.19
2023-04-21T21:37:38.256Z,35.01
2023-04-21T21:40:07.164Z,35.10
2023-04-21T21:42:34.409Z,35.42
2023-04-21T21:45:02.126Z,35.51
2023-04-21T21:47:40.284Z,35.41
2023-04-21T21:50:09.492Z,35.38
2023-04-21T21:52:36.501Z,35.39
2023-04-21T21:55:03.680Z,35.20
2023-04-21T21:57:33.248Z,34.89
2023-04-21T22:00:00.654Z,35.26
2023-04-21T22:02:29.131Z,35.02
2023-04-21T22:04:56.621Z,35.12
2023-04-21T22:07:25.165Z,35.01
2023-04-21T22:09:52.739Z,34.97
2023-04-21T22:12:19.884Z,35.16
2023-04-21T22:14:47.209Z,35.15
2023-04-21T22:17:14.605Z,35.12
2023-04-21T22:19:41.939Z,35.51
2023-04-21T22:22:08.934Z,35.57
2023-04-21T22:24:35.905Z,35.41
2023-04-21T22:27:03.060Z,35.28
2023-04-21T22:29:31.027Z,35.79
2023-04-21T22:31:58.580Z,35.64
2023-04-21T22:34:25.641Z,35.66
2023-04-21T22:36:53.537Z,35.88
2023-04-21T22:39:21.051Z,35.85
2023-04-21T22:41:48.097Z,35.89
2023-04-21T22:44:15.052Z,36.03
2023-04-21T22:46:42.920Z,36.24
2023-04-21T22:49:10.048Z,36.49
2023-04-21T22:51:37.054Z,37.09
2023-04-21T22:54:04.391Z,36.85
2023-04-21T22:56:31.695Z,37.09
2023-04-21T22:58:58.809Z,37.35
2023-04-21T23:01:25.893Z,37.19
2023-04-21T23:03:53.068Z,37.86
2023-04-21T23:06:20.227Z,37.87
2023-04-21T23:08:47.285Z,37.72
2023-04-21T23:11:14.476Z,37.52
2023-04-21T23:13:41.532Z,37.90
2023-04-21T23:16:08.559Z,38.39
2023-04-21T23:18:36.041Z,38.28
2023-04-21T23:21:03.251Z,38.48
2023-04-21T23:23:30.314Z,39.00
2023-04-21T23:25:57.343Z,39.50
2023-04-21T23:28:24.635Z,39.21
2023-04-21T23:30:51.763Z,39.45
2023-04-21T23:33:19.093Z,39.33
2023-04-21T23:35:46.148Z,39.41
2023-04-21T23:38:13.212Z,39.38
2023-04-21T23:40:40.377Z,39.41
2023-04-21T23:43:07.769Z,39.08
2023-04-21T23:45:35.040Z,39.54
2023-04-21T23:48:02.207Z,39.39
2023-04-21T23:50:29.354Z,39.33
2023-04-21T23:52:56.580Z,40.10
2023-04-21T23:55:23.641Z,39.90
2023-04-21T23:57:50.587Z,39.79
